Rancho Dominguez, California
Current Conditions -  °F | °C
As of 11:53 AM on Monday 26 Jan 2015 (Local Time) from KHHR Reporting Station
Few Clouds Few Clouds  
Wind Chill: 77°   Ceiling: Unl
Heat Index: 77°   Visibility: 10mi
Dew Point: 37°   Wind: 9mph
Humidity: 24%   Direction: 130°SE
Pressure: 29.99"   Gusts: NA
Location:  33.8732°N, 118.264°W
Report Text: KHHR 261953Z 13008KT 10SM FEW120 25/03 A2999 RMK AO2 SLP156 T02500028
Loading
Personal Weather Stations






























Interactive Weather Map New forecast layout! Learn more

10-Day Weather Forecast

Advertisements
Track Severe Weather on mobile